x

Central Aleutians 230nm Sw Dutch Harbor (46072) Wave Buoy

12:50am - Mon 14th Jul 2014 All times are UTC.

  • Sig Wave height 5.2ft
  • Peak Period 14s
  • Average Period 5s
  • Wind
    18mph, 25mph gusts
  • Sea Temp 51°f
  • Air Temp 48°f
  • Sea Pressure 1015mb

More Historic Weather Station data

Upgrade to MSW Pro to gain access to the past 30 days of data for over 8000 Wavebouys and Weather Stations around the globe.

Join Pro

Comparision Forecast

View Surf forecast
   
Mon 07/14 12:50am 5ft 14s 5s 18 25 mph 1015mb 51f 48f
Sun 07/13 11:50pm 5.5ft 14s 5s 20 22 mph 1014.8mb 51f 48f
10:50pm 6ft 14s 5s 20 27 mph 1014.5mb 51f 48f
9:50pm 6ft 15s 6s 16 18 mph 1014.5mb 50f 47f
8:50pm 6ft 7s 6s 16 20 mph 1014.2mb 51f 48f
7:50pm 6.5ft 6s 6s 13 16 mph 1013.9mb 51f 47f
6:50pm 5.5ft 7s 6s 16 20 mph 1013.7mb 51f 47f
5:50pm 6ft 6s 6s 13 18 mph 1013.2mb 50f 46f
4:50pm 6ft 14s 6s 18 20 mph 1012.8mb 51f 46f
3:50pm 7ft 14s 6s 22 25 mph 1012.4mb 51f 46f
2:50pm 7.5ft 15s 5s 22 27 mph 1012mb 51f 47f
1:50pm 7.5ft 5s 5s 27 34 mph 1011.8mb 51f 47f
12:50pm 7ft 7s 5s 22 27 mph 1011.8mb 51f 48f
11:50am 6ft 6s 5s 29 34 mph 1011.5mb 51f 48f
10:50am 7ft 6s 5s 22 29 mph 1012.2mb 51f 49f
9:50am 7.5ft 7s 5s 20 25 mph 1011.8mb 51f 49f
8:50am 8ft 7s 5s 27 31 mph 1011.7mb 51f 49f
7:50am 7ft 6s 5s 22 27 mph 1012mb 51f 48f
6:50am 7ft 6s 5s 25 29 mph 1011.6mb 51f 48f
5:50am 6.5ft 6s 5s 20 25 mph 1011.9mb 51f 48f
4:50am 6.5ft 6s 5s 25 29 mph 1011.8mb 51f 49f
3:50am 6ft 7s 6s 22 27 mph 1011.9mb 52f 50f
2:50am 6ft 7s 6s 22 27 mph 1012.2mb 52f 50f
1:50am 6.5ft 15s 6s 13 16 mph 1012.7mb 51f 49f
12:50am 6ft 6s 6s 9 11 mph 1012.7mb 51f 49f
Sat 07/12 11:50pm 6ft 7s 5s 16 18 mph 1012.9mb 49f 49f
10:50pm 6.5ft 15s 6s 11 16 mph 1013.1mb 49f 48f
9:50pm 6ft 7s 6s 16 18 mph 1013.2mb 49f 48f
8:50pm 6ft 7s 5s 16 18 mph 1013.5mb 49f 48f
7:50pm 6ft 7s 5s 13 18 mph 1014mb 49f 47f
6:50pm 6ft 7s 5s 11 13 mph 1014.3mb 49f 47f
5:50pm 6ft 7s 6s 18 20 mph 1014.1mb 49f 48f
4:50pm 5.5ft 7s 6s 13 18 mph 1014.3mb 49f 48f
3:50pm 6ft 7s 5s 16 18 mph 1014.4mb 51f 49f
2:50pm 6ft 7s 5s 16 20 mph 1014.8mb 51f 49f
1:50pm 7ft 7s 5s 22 25 mph 1014.5mb 51f 49f
12:50pm 7ft 7s 5s 25 29 mph 1014.5mb 51f 49f
11:50am 7ft 7s 5s 18 22 mph 1015mb 51f 49f
10:50am 6.5ft 8s 5s 22 27 mph 1015.2mb 51f 49f
9:50am 7ft 7s 5s 20 25 mph 1015.5mb 51f 49f
8:50am 8ft 7s 6s 22 25 mph 1015.4mb 51f 50f
7:50am 7.5ft 7s 6s 20 25 mph 1015.6mb 51f 50f
6:50am 7.5ft 7s 6s 11 18 mph 1015.9mb 51f 50f
5:50am 6.5ft 7s 6s 16 20 mph 1015.5mb 51f 50f
4:50am 7ft 7s 6s 16 20 mph 1015.5mb 51f 50f
3:50am 6ft 8s 6s 16 22 mph 1016.1mb 51f 50f
2:50am 7ft 7s 6s 18 20 mph 1015.9mb 51f 49f
1:50am 7ft 7s 6s 18 22 mph 1016.1mb 51f 49f
12:50am 7ft 8s 6s 18 20 mph 1016.2mb 51f 49f
Fri 07/11 11:50pm 7ft 7s 6s 18 22 mph 1016.6mb 51f 49f
10:50pm 6ft 7s 6s 16 18 mph 1016.8mb 51f 49f
9:50pm 6ft 7s 5s 18 22 mph 1016.7mb 51f 48f
8:50pm 6.5ft 7s 5s 16 18 mph 1016.8mb 51f 48f
7:50pm 7.5ft 7s 5s 20 22 mph 1016.9mb 51f 48f
6:50pm 7ft 6s 6s 16 20 mph 1016.7mb 51f 48f
5:50pm 8ft 7s 6s 20 25 mph 1016.7mb 51f 48f
4:50pm 7ft 7s 6s 29 34 mph 1015.7mb 51f 48f
3:50pm 8ft 7s 6s 27 31 mph 1015.8mb 51f 48f
2:50pm 7ft 7s 5s 22 29 mph 1016.1mb 51f 48f
1:50pm 7ft 7s 6s 16 20 mph 1016.4mb 51f 48f
12:50pm 7ft 7s 6s 18 22 mph 1016.3mb 51f 48f
11:50am 6ft 7s 5s 18 20 mph 1016.5mb 51f 48f
10:50am 6.5ft 14s 6s 20 25 mph 1016mb 51f 48f
9:50am 7ft 7s 5s 20 25 mph 1016.4mb 51f 48f
8:50am 6.5ft 6s 5s 18 22 mph 1016.9mb 51f 48f
7:50am 7ft 7s 5s 20 25 mph 1016.8mb 51f 48f
6:50am 6ft 7s 5s 20 25 mph 1016.5mb 51f 48f
5:50am 6.5ft 7s 6s 18 22 mph 1016.5mb 51f 48f
4:50am 7ft 7s 5s 20 25 mph 1016.6mb 51f 48f
3:50am 7ft 7s 6s 20 22 mph 1016.7mb 51f 48f
2:50am 7ft 14s 6s 20 22 mph 1016.7mb 51f 48f
1:50am 7ft 7s 6s 22 29 mph 1016.8mb 51f 49f
12:50am 7ft 6s 6s 25 29 mph 1016.8mb 51f 49f
Thu 07/10 11:50pm 6ft 7s 6s 22 27 mph 1017.2mb 51f 49f
10:50pm 7ft 7s 6s 22 27 mph 1017.2mb 51f 48f
9:50pm 7ft 6s 6s 25 31 mph 1017.4mb 51f 48f
8:50pm 6ft 6s 5s 25 29 mph 1017.4mb 51f 48f
7:50pm 6.5ft 7s 5s 22 29 mph 1017.7mb 51f 49f
6:50pm 6ft 6s 5s 22 29 mph 1017.6mb 51f 48f
5:50pm 6.5ft 6s 5s 22 29 mph 1017.3mb 51f 48f
4:50pm 6ft 6s 5s 25 31 mph 1016.9mb 51f 48f
3:50pm 5ft 6s 5s 25 31 mph 1016.9mb 51f 49f
2:50pm 5ft 14s 5s 20 25 mph 1016.9mb 52f 49f
1:50pm 5ft 5s 5s 20 25 mph 1017.1mb 52f 49f
12:50pm 4.5ft 15s 5s 20 25 mph 1017.2mb 52f 48f
11:50am 4ft 15s 5s 18 22 mph 1017.3mb 52f 48f
10:50am 4ft 15s 5s 18 20 mph 1017.5mb 52f 49f
9:50am 3.5ft 4s 4s 18 22 mph 1017.3mb 52f 50f
8:50am 3.5ft 15s 5s 18 20 mph 1017.3mb 52f 50f
7:50am 3ft 4s 4s 18 20 mph 1017mb 52f 50f
6:50am 3ft 4s 4s 16 20 mph 1016.6mb 52f 50f
5:50am 3ft 4s 4s 16 20 mph 1016.5mb 52f 50f
4:50am 2.5ft 4s 4s 16 18 mph 1016.2mb 52f 50f
3:50am 2.5ft 3s 4s 13 18 mph 1016.1mb 52f 50f
2:50am 2ft 3s 3s 13 18 mph 1016mb 52f 49f
1:50am 2ft 14s 4s 13 16 mph 1015.9mb 52f 50f